Time;durP1;ratioP1;P1;durP2;ratioP2;P2;SDS_P1;SDS_P2;PMS_P1;PMS_P2;Temp;Humidity;BMP_temperature;BMP_pressure;BME280_temperature;BME280_humidity;BME280_pressure;Samples;Min_cycle;Max_cycle;Signal;HPM_P1;HPM_P2
2023/01/07 00:01:05;;;;;;;21.02;7.40;;;;;;;9.16;100.00;99152.59;2170226;82;21106;-59
2023/01/07 00:04:06;;;;;;;21.30;7.33;;;;;;;9.49;100.00;99142.17;2170413;82;21565;-59
2023/01/07 00:07:07;;;;;;;21.80;7.72;;;;;;;9.40;100.00;99145.27;2170165;82;21082;-58
2023/01/07 00:10:09;;;;;;;22.35;7.80;;;;;;;9.33;100.00;99141.28;2170143;82;21526;-58
2023/01/07 00:13:10;;;;;;;20.30;7.30;;;;;;;9.34;100.00;99155.59;2170187;82;21037;-59
2023/01/07 00:16:12;;;;;;;22.58;7.25;;;;;;;9.37;100.00;99157.22;2170171;82;21059;-59
2023/01/07 00:19:14;;;;;;;21.75;7.60;;;;;;;9.29;100.00;99161.98;2170358;82;21105;-59
2023/01/07 00:22:15;;;;;;;21.53;7.30;;;;;;;9.35;100.00;99165.59;2170432;82;21062;-59
2023/01/07 00:25:17;;;;;;;22.07;7.25;;;;;;;9.44;100.00;99170.82;2170280;82;21038;-59
2023/01/07 00:28:18;;;;;;;22.30;7.80;;;;;;;9.41;100.00;99173.16;2170387;82;21094;-59
2023/01/07 00:31:19;;;;;;;23.07;7.87;;;;;;;9.45;100.00;99186.48;2170376;82;21529;-59
2023/01/07 00:34:22;;;;;;;19.40;7.22;;;;;;;9.47;100.00;99187.71;2178528;82;21069;-59
2023/01/07 00:40:27;;;;;;;20.02;7.30;;;;;;;9.30;100.00;99190.70;2150436;82;20111;-59
2023/01/07 00:43:29;;;;;;;20.10;6.87;;;;;;;9.31;100.00;99187.17;2179864;81;21628;-59
2023/01/07 00:46:30;;;;;;;20.68;7.62;;;;;;;9.35;100.00;99185.23;2179945;81;21022;-59
2023/01/07 00:49:32;;;;;;;19.23;7.20;;;;;;;9.36;100.00;99183.00;2180291;82;21588;-59
2023/01/07 00:52:33;;;;;;;19.47;7.20;;;;;;;9.34;100.00;99184.39;2180297;82;21089;-59
2023/01/07 00:55:35;;;;;;;21.45;7.87;;;;;;;9.31;100.00;99188.48;2179982;81;21045;-59
2023/01/07 00:58:36;;;;;;;21.47;7.40;;;;;;;9.36;100.00;99194.31;2180401;81;21021;-59
2023/01/07 01:01:38;;;;;;;19.40;7.20;;;;;;;9.33;100.00;99203.63;2179901;81;21065;-59
2023/01/07 01:04:39;;;;;;;19.80;6.67;;;;;;;9.34;100.00;99200.09;2180198;82;21440;-59
2023/01/07 01:07:40;;;;;;;22.93;7.67;;;;;;;9.23;100.00;99194.55;2179845;81;21018;-59
2023/01/07 01:10:42;;;;;;;20.72;7.55;;;;;;;9.23;100.00;99198.94;2179930;81;21516;-59
2023/01/07 01:13:43;;;;;;;22.62;7.20;;;;;;;9.30;100.00;99209.50;2180530;81;21029;-59
2023/01/07 01:16:45;;;;;;;20.15;7.53;;;;;;;9.28;100.00;99206.09;2180141;81;21061;-59
2023/01/07 01:19:46;;;;;;;20.52;7.40;;;;;;;9.22;100.00;99219.02;2180195;81;21049;-59
2023/01/07 01:22:48;;;;;;;21.02;7.60;;;;;;;9.22;100.00;99222.11;2180143;81;21001;-59
2023/01/07 01:25:49;;;;;;;22.52;8.15;;;;;;;9.21;100.00;99221.27;2180385;81;21456;-59
2023/01/07 01:28:50;;;;;;;20.25;7.65;;;;;;;9.22;100.00;99215.09;2180098;81;20966;-59
2023/01/07 01:31:52;;;;;;;21.17;7.47;;;;;;;9.23;100.00;99217.27;2180485;82;21492;-59
2023/01/07 01:34:53;;;;;;;20.77;7.55;;;;;;;9.19;100.00;99213.94;2180207;81;21080;-59
2023/01/07 01:37:55;;;;;;;20.48;7.50;;;;;;;9.18;100.00;99218.34;2180050;81;21010;-59
2023/01/07 01:40:57;;;;;;;19.55;7.65;;;;;;;9.11;100.00;99220.03;2180152;81;21603;-59
2023/01/07 01:43:58;;;;;;;22.00;7.78;;;;;;;9.28;100.00;99225.72;2180339;82;21020;-59
2023/01/07 01:46:59;;;;;;;20.48;6.90;;;;;;;9.25;100.00;99234.59;2180100;81;21042;-59
2023/01/07 01:50:01;;;;;;;22.37;7.50;;;;;;;9.33;100.00;99225.05;2180459;82;20947;-59
2023/01/07 01:53:02;;;;;;;20.82;7.67;;;;;;;9.32;100.00;99215.05;2180098;81;21114;-59
2023/01/07 01:56:04;;;;;;;21.30;8.05;;;;;;;9.21;100.00;99209.94;2180373;81;20974;-58
2023/01/07 01:59:05;;;;;;;22.27;7.80;;;;;;;8.98;100.00;99211.45;2180367;81;21057;-59
2023/01/07 02:02:07;;;;;;;21.80;7.85;;;;;;;8.91;100.00;99206.60;2180320;81;21579;-59
2023/01/07 02:05:08;;;;;;;20.27;7.47;;;;;;;8.72;100.00;99207.91;2180437;81;21005;-58
2023/01/07 02:08:10;;;;;;;21.40;7.60;;;;;;;8.82;100.00;99211.34;2180049;81;21101;-59
2023/01/07 02:11:11;;;;;;;22.65;8.25;;;;;;;8.96;100.00;99217.67;2180210;81;20970;-59
2023/01/07 02:14:13;;;;;;;22.75;8.38;;;;;;;8.97;100.00;99216.77;2180061;81;21046;-58
2023/01/07 02:17:14;;;;;;;21.55;8.30;;;;;;;8.76;100.00;99216.01;2180286;81;21508;-59
2023/01/07 02:20:16;;;;;;;20.65;7.90;;;;;;;8.82;100.00;99219.19;2180017;81;21038;-59
2023/01/07 02:23:17;;;;;;;20.77;7.70;;;;;;;8.88;100.00;99217.19;2180009;81;21563;-59
2023/01/07 02:26:18;;;;;;;22.70;8.13;;;;;;;8.94;100.00;99208.59;2180187;82;20947;-59
2023/01/07 02:29:20;;;;;;;22.00;8.45;;;;;;;9.00;100.00;99212.21;2179895;82;20994;-59
2023/01/07 02:32:21;;;;;;;23.22;8.45;;;;;;;9.01;100.00;99212.61;2179500;81;21504;-59
2023/01/07 02:35:23;;;;;;;24.00;9.00;;;;;;;8.96;100.00;99201.98;2170157;82;20939;-59
2023/01/07 02:38:24;;;;;;;24.43;8.13;;;;;;;8.93;100.00;99204.27;2170405;82;21474;-59
2023/01/07 02:41:27;;;;;;;21.55;8.28;;;;;;;9.00;100.00;99206.98;2170241;82;21019;-59
2023/01/07 02:44:29;;;;;;;20.95;7.90;;;;;;;8.88;100.00;99216.75;2170377;82;20991;-59
2023/01/07 02:47:31;;;;;;;21.45;7.78;;;;;;;8.91;100.00;99224.91;2170491;82;20994;-59
2023/01/07 02:50:32;;;;;;;23.10;8.20;;;;;;;8.79;100.00;99221.09;2170097;82;21090;-59
2023/01/07 02:53:34;;;;;;;22.27;8.15;;;;;;;8.75;100.00;99224.77;2170496;82;21498;-59
2023/01/07 02:56:35;;;;;;;21.83;8.83;;;;;;;8.71;100.00;99222.77;2170311;82;21078;-59
2023/01/07 02:59:37;;;;;;;21.27;7.90;;;;;;;8.69;100.00;99224.59;2169725;82;21041;-59
2023/01/07 03:02:38;;;;;;;21.33;8.17;;;;;;;8.60;100.00;99224.56;2170204;82;21034;-59
2023/01/07 03:05:40;;;;;;;22.45;8.13;;;;;;;8.63;100.00;99224.45;2170060;82;21086;-59
2023/01/07 03:08:42;;;;;;;22.50;8.35;;;;;;;8.54;100.00;99232.70;2170311;82;21031;-59
2023/01/07 03:11:43;;;;;;;23.32;8.10;;;;;;;8.49;100.00;99232.05;2170089;82;21026;-59
2023/01/07 03:14:45;;;;;;;22.65;8.25;;;;;;;8.50;100.00;99237.68;2170388;82;21588;-59
2023/01/07 03:17:46;;;;;;;21.68;8.03;;;;;;;8.64;100.00;99243.59;2170023;82;21101;-59
2023/01/07 03:20:47;;;;;;;22.13;8.58;;;;;;;8.59;100.00;99243.81;2170489;82;21522;-59
2023/01/07 03:23:49;;;;;;;21.50;8.58;;;;;;;8.55;100.00;99240.08;2170148;82;21120;-59
2023/01/07 03:26:50;;;;;;;22.25;8.93;;;;;;;8.37;100.00;99239.13;2170078;82;21026;-59
2023/01/07 03:29:52;;;;;;;22.22;8.65;;;;;;;8.31;100.00;99242.40;2170167;82;21052;-59
2023/01/07 03:32:53;;;;;;;21.20;7.92;;;;;;;8.39;100.00;99246.00;2169963;82;21113;-59
2023/01/07 03:35:54;;;;;;;21.90;8.05;;;;;;;8.36;100.00;99244.83;2170312;82;21089;-59
2023/01/07 03:38:56;;;;;;;21.85;8.23;;;;;;;8.29;100.00;99246.86;2169996;82;21062;-59
2023/01/07 03:45:01;;;;;;;21.73;8.63;;;;;;;8.27;100.00;99249.98;2149383;82;21490;-59
2023/01/07 03:48:02;;;;;;;21.02;8.23;;;;;;;8.20;100.00;99247.26;2169938;82;21057;-59
2023/01/07 03:51:04;;;;;;;20.90;8.23;;;;;;;8.15;100.00;99250.55;2169995;82;21597;-59
2023/01/07 03:54:05;;;;;;;23.70;8.38;;;;;;;8.18;100.00;99240.43;2170176;82;21063;-59
2023/01/07 03:57:07;;;;;;;21.33;7.90;;;;;;;8.22;100.00;99241.99;2170424;82;21086;-59
2023/01/07 04:00:08;;;;;;;21.23;8.45;;;;;;;8.26;100.00;99248.75;2170122;82;21379;-59
2023/01/07 04:03:10;;;;;;;23.77;9.03;;;;;;;8.27;100.00;99249.98;2169893;82;21096;-58
2023/01/07 04:06:12;;;;;;;26.30;10.60;;;;;;;8.30;100.00;99249.01;2170308;82;21038;-59
2023/01/07 04:09:17;;;;;;;25.77;10.80;;;;;;;8.26;100.00;99253.98;2170033;82;21094;-59
2023/01/07 04:12:17;;;;;;;28.38;10.15;;;;;;;8.10;100.00;99253.81;2149146;82;20990;-59
2023/01/07 04:15:18;;;;;;;25.95;10.88;;;;;;;8.09;100.00;99255.59;2170427;82;21031;-59
2023/01/07 04:18:20;;;;;;;26.50;11.93;;;;;;;8.09;100.00;99246.44;2169965;82;21126;-59
2023/01/07 04:21:21;;;;;;;28.30;13.13;;;;;;;8.16;100.00;99245.72;2169955;82;21584;-58
2023/01/07 04:24:22;;;;;;;27.40;11.43;;;;;;;8.27;100.00;99255.21;2170191;82;21070;-59
2023/01/07 04:27:24;;;;;;;26.97;11.57;;;;;;;8.25;100.00;99250.53;2170077;82;21046;-59
2023/01/07 04:30:25;;;;;;;28.87;11.88;;;;;;;8.25;100.00;99245.30;2170278;82;21034;-59
2023/01/07 04:33:27;;;;;;;25.27;9.73;;;;;;;8.29;100.00;99247.34;2169967;82;21074;-59
2023/01/07 04:36:28;;;;;;;24.05;9.05;;;;;;;8.23;100.00;99243.66;2170136;82;21581;-59
2023/01/07 04:39:29;;;;;;;23.98;9.13;;;;;;;8.27;100.00;99243.92;2169981;82;21070;-59
2023/01/07 04:42:31;;;;;;;26.12;9.83;;;;;;;8.19;100.00;99240.36;2170020;82;21063;-59
2023/01/07 04:45:32;;;;;;;24.80;10.85;;;;;;;8.20;100.00;99245.11;2170246;82;21066;-59
2023/01/07 04:48:34;;;;;;;28.35;11.28;;;;;;;7.98;100.00;99250.81;2169749;82;21536;-59
2023/01/07 04:51:36;;;;;;;26.90;11.53;;;;;;;8.09;100.00;99252.97;2170300;82;20986;-59
2023/01/07 04:54:38;;;;;;;26.52;11.18;;;;;;;8.14;100.00;99250.16;2169968;82;21520;-59
2023/01/07 04:57:39;;;;;;;28.32;11.45;;;;;;;8.26;100.00;99244.83;2169979;82;21040;-59
2023/01/07 05:00:41;;;;;;;26.52;11.05;;;;;;;8.15;100.00;99256.61;2169714;82;20998;-59
2023/01/07 05:03:42;;;;;;;35.52;13.93;;;;;;;8.16;100.00;99262.70;2170162;82;20997;-59
2023/01/07 05:06:43;;;;;;;32.65;14.75;;;;;;;8.31;100.00;99267.70;2170048;82;21050;-59
2023/01/07 05:09:45;;;;;;;33.58;14.35;;;;;;;8.18;100.00;99261.33;2170154;82;21045;-59
2023/01/07 05:12:46;;;;;;;38.95;17.10;;;;;;;8.19;100.00;99263.88;2170042;82;21097;-59
2023/01/07 05:15:48;;;;;;;33.08;15.00;;;;;;;8.24;100.00;99270.20;2170193;82;21671;-59
2023/01/07 05:18:49;;;;;;;34.15;15.03;;;;;;;8.33;100.00;99273.26;2170080;82;21073;-59
2023/01/07 05:21:51;;;;;;;38.10;16.65;;;;;;;8.41;100.00;99272.91;2170031;82;21082;-59
2023/01/07 05:24:52;;;;;;;38.55;16.40;;;;;;;8.49;100.00;99271.27;2170270;82;21493;-59
2023/01/07 05:27:53;;;;;;;33.60;14.55;;;;;;;8.45;100.00;99267.13;2170118;82;21082;-59
2023/01/07 05:30:55;;;;;;;30.77;13.65;;;;;;;8.55;100.00;99262.30;2170024;82;21113;-59
2023/01/07 05:33:56;;;;;;;39.18;15.28;;;;;;;8.63;100.00;99267.59;2173041;82;21082;-59
2023/01/07 05:36:58;;;;;;;39.83;15.20;;;;;;;8.66;100.00;99270.50;2179930;82;21009;-59
2023/01/07 05:39:59;;;;;;;36.53;15.18;;;;;;;8.41;100.00;99274.20;2180001;82;21540;-59
2023/01/07 05:43:00;;;;;;;32.50;13.25;;;;;;;8.36;100.00;99265.74;2179953;82;21069;-59
2023/01/07 05:46:02;;;;;;;26.65;10.72;;;;;;;8.38;100.00;99274.82;2179817;82;21057;-59
2023/01/07 05:49:04;;;;;;;25.17;10.00;;;;;;;8.42;100.00;99275.91;2180042;82;21476;-59
2023/01/07 05:52:05;;;;;;;29.63;11.93;;;;;;;8.39;100.00;99268.66;2179890;82;21022;-59
2023/01/07 05:55:07;;;;;;;32.42;11.95;;;;;;;8.35;100.00;99277.55;2180006;82;20986;-59
2023/01/07 05:58:09;;;;;;;27.50;11.57;;;;;;;8.53;100.00;99282.45;2180079;82;21006;-59
2023/01/07 06:01:10;;;;;;;26.80;12.55;;;;;;;8.48;100.00;99285.28;2180092;82;20997;-59
2023/01/07 06:04:11;;;;;;;24.52;10.53;;;;;;;8.43;100.00;99283.28;2180203;82;20989;-59
2023/01/07 06:07:13;;;;;;;23.67;10.30;;;;;;;8.51;100.00;99290.37;2180097;82;20982;-59
2023/01/07 06:10:14;;;;;;;31.00;13.68;;;;;;;8.37;100.00;99283.57;2180177;82;21495;-59
2023/01/07 06:13:16;;;;;;;30.23;13.30;;;;;;;8.46;100.00;99284.05;2180008;82;21101;-59
2023/01/07 06:16:17;;;;;;;28.30;14.13;;;;;;;8.23;100.00;99290.27;2180472;82;21465;-59
2023/01/07 06:19:19;;;;;;;27.98;12.85;;;;;;;8.13;100.00;99294.17;2180151;82;20977;-59
2023/01/07 06:22:20;;;;;;;31.97;12.80;;;;;;;8.01;100.00;99296.86;2180429;82;20974;-59
2023/01/07 06:25:21;;;;;;;28.98;12.70;;;;;;;8.07;100.00;99302.28;2180446;82;20985;-59
2023/01/07 06:28:23;;;;;;;32.55;13.98;;;;;;;8.25;100.00;99311.11;2180190;82;20978;-59
2023/01/07 06:31:24;;;;;;;30.50;14.68;;;;;;;8.11;100.00;99310.38;2179868;82;21511;-59
2023/01/07 06:34:26;;;;;;;28.60;12.78;;;;;;;8.17;100.00;99312.72;2180349;82;21018;-59
2023/01/07 06:37:27;;;;;;;31.15;15.90;;;;;;;8.16;100.00;99304.52;2180062;82;21009;-59
2023/01/07 06:40:29;;;;;;;27.95;12.47;;;;;;;8.41;100.00;99308.66;2179925;82;21049;-59
2023/01/07 06:43:30;;;;;;;32.65;12.98;;;;;;;8.57;100.00;99299.70;2180176;82;20978;-59
2023/01/07 06:46:32;;;;;;;27.77;11.85;;;;;;;8.65;100.00;99302.83;2180412;82;21587;-59
2023/01/07 06:49:33;;;;;;;28.02;11.40;;;;;;;8.65;100.00;99301.05;2180279;82;20954;-59
2023/01/07 06:52:35;;;;;;;24.23;10.70;;;;;;;8.64;100.00;99304.57;2180191;82;20982;-59
2023/01/07 06:55:36;;;;;;;25.77;11.07;;;;;;;8.52;100.00;99306.89;2180440;82;21025;-58
2023/01/07 06:58:38;;;;;;;24.90;11.33;;;;;;;8.52;100.00;99309.50;2180320;82;21242;-58
2023/01/07 07:01:39;;;;;;;25.45;11.08;;;;;;;8.18;100.00;99313.13;2180416;82;21473;-59
2023/01/07 07:04:41;;;;;;;46.40;18.42;;;;;;;8.05;100.00;99319.34;2180172;82;21009;-59
2023/01/07 07:07:42;;;;;;;36.75;16.15;;;;;;;7.77;100.00;99322.25;2180119;82;21532;-59
2023/01/07 07:10:43;;;;;;;45.50;20.82;;;;;;;7.82;100.00;99321.62;2180257;82;20998;-59
2023/01/07 07:13:45;;;;;;;49.42;22.00;;;;;;;7.90;100.00;99324.77;2180168;82;21037;-59
2023/01/07 07:16:48;;;;;;;50.97;23.37;;;;;;;8.11;100.00;99329.98;2180494;82;21076;-59
2023/01/07 07:19:50;;;;;;;56.48;24.75;;;;;;;8.20;100.00;99334.80;2179907;82;21326;-59
2023/01/07 07:22:51;;;;;;;54.63;24.98;;;;;;;8.25;100.00;99332.84;2180263;82;20998;-59
2023/01/07 07:25:53;;;;;;;42.80;18.93;;;;;;;8.18;100.00;99336.64;2180354;82;20994;-59
2023/01/07 07:28:54;;;;;;;41.98;19.23;;;;;;;8.28;100.00;99343.63;2180286;82;21106;-59
2023/01/07 07:31:56;;;;;;;50.58;24.55;;;;;;;8.24;100.00;99336.84;2180085;82;21028;-59
2023/01/07 07:34:57;;;;;;;46.48;22.77;;;;;;;8.29;100.00;99337.03;2175061;82;21576;-59
2023/01/07 07:37:58;;;;;;;43.83;18.82;;;;;;;8.37;100.00;99337.16;2170281;82;21113;-59
2023/01/07 07:41:00;;;;;;;39.58;19.07;;;;;;;8.44;100.00;99334.66;2170211;82;21026;-59
2023/01/07 07:44:01;;;;;;;33.20;15.07;;;;;;;8.72;100.00;99329.53;2170461;82;21042;-59
2023/01/07 07:47:03;;;;;;;31.23;13.60;;;;;;;8.99;100.00;99328.72;2170037;82;20991;-59
2023/01/07 07:50:05;;;;;;;30.52;13.03;;;;;;;8.99;100.00;99328.72;2170181;82;22077;-59
2023/01/07 07:53:08;;;;;;;28.83;13.13;;;;;;;9.17;100.00;99337.02;2170310;82;21122;-59
2023/01/07 07:56:10;;;;;;;33.75;17.25;;;;;;;9.39;100.00;99345.16;2170241;82;20971;-59
2023/01/07 07:59:11;;;;;;;39.90;18.35;;;;;;;9.53;100.00;99333.56;2170057;82;21054;-59
2023/01/07 08:02:13;;;;;;;48.25;20.45;;;;;;;9.81;100.00;99347.95;2170092;82;21046;-59
2023/01/07 08:05:14;;;;;;;42.98;17.35;;;;;;;9.75;100.00;99345.61;2170324;82;21520;-59
2023/01/07 08:08:16;;;;;;;33.33;14.35;;;;;;;9.74;100.00;99340.45;2170316;82;21082;-59
2023/01/07 08:11:17;;;;;;;31.50;14.35;;;;;;;9.71;100.00;99343.62;2170215;82;21573;-59
2023/01/07 08:14:18;;;;;;;30.55;13.28;;;;;;;9.63;100.00;99331.83;2170280;82;21062;-59
2023/01/07 08:17:20;;;;;;;29.50;12.47;;;;;;;9.45;100.00;99333.11;2170208;82;21082;-59
2023/01/07 08:20:22;;;;;;;32.63;13.83;;;;;;;9.40;100.00;99331.16;2170292;82;21302;-59
2023/01/07 08:23:23;;;;;;;29.90;12.98;;;;;;;9.39;100.00;99328.15;2170046;82;21038;-59
2023/01/07 08:26:25;;;;;;;33.80;14.77;;;;;;;9.34;100.00;99332.77;2170474;82;21501;-59
2023/01/07 08:29:26;;;;;;;33.55;15.20;;;;;;;9.33;100.00;99337.61;2170058;82;21037;-59
2023/01/07 08:32:27;;;;;;;35.15;17.70;;;;;;;9.38;100.00;99334.33;2170417;82;21615;-59
2023/01/07 08:35:29;;;;;;;34.38;15.68;;;;;;;9.53;100.00;99337.49;2175603;82;21071;-59
2023/01/07 08:38:31;;;;;;;34.63;15.53;;;;;;;9.66;100.00;99335.59;2179893;82;21013;-59
2023/01/07 08:41:33;;;;;;;31.20;14.47;;;;;;;9.68;100.00;99336.36;2179966;82;21033;-59
2023/01/07 08:44:35;;;;;;;31.57;14.58;;;;;;;9.82;100.00;99339.61;2180177;82;21105;-59
2023/01/07 08:47:38;;;;;;;30.43;14.33;;;;;;;10.03;100.00;99337.23;2180230;82;21536;-59
2023/01/07 08:50:40;;;;;;;34.13;14.23;;;;;;;10.12;100.00;99327.20;2180076;82;21033;-59
2023/01/07 08:53:41;;;;;;;31.95;14.30;;;;;;;10.26;100.00;99337.83;2179852;82;21076;-59
2023/01/07 08:56:43;;;;;;;30.60;13.85;;;;;;;10.43;100.00;99337.44;2180306;82;21497;-59
2023/01/07 08:59:45;;;;;;;29.72;13.58;;;;;;;10.37;100.00;99339.91;2179895;82;20986;-59
2023/01/07 09:02:46;;;;;;;29.42;12.58;;;;;;;10.40;100.00;99348.48;2180319;82;21461;-59
2023/01/07 09:05:48;;;;;;;31.68;12.90;;;;;;;10.49;100.00;99353.71;2180125;82;21040;-59
2023/01/07 09:08:50;;;;;;;29.42;12.18;;;;;;;10.39;100.00;99355.96;2180151;82;21509;-59
2023/01/07 09:11:51;;;;;;;26.70;12.35;;;;;;;10.40;100.00;99346.30;2180199;82;20977;-59
2023/01/07 09:14:53;;;;;;;30.82;13.55;;;;;;;10.34;100.00;99351.88;2179943;82;21024;-59
2023/01/07 09:17:54;;;;;;;33.60;14.53;;;;;;;10.19;100.00;99356.11;2180439;82;21056;-59
2023/01/07 09:20:56;;;;;;;32.15;13.35;;;;;;;10.08;100.00;99355.81;2180078;82;21115;-58
2023/01/07 09:23:58;;;;;;;32.40;14.40;;;;;;;10.01;100.00;99355.25;2180200;82;21543;-59
2023/01/07 09:27:00;;;;;;;34.70;16.60;;;;;;;9.96;100.00;99359.42;2180059;82;21070;-59
2023/01/07 09:30:01;;;;;;;33.30;15.83;;;;;;;9.98;100.00;99354.94;2180129;82;21469;-59
2023/01/07 09:33:03;;;;;;;33.92;16.77;;;;;;;10.09;100.00;99357.52;2180183;82;21002;-59
2023/01/07 09:36:04;;;;;;;36.10;15.35;;;;;;;10.16;100.00;99344.00;2172878;82;21541;-59
2023/01/07 09:39:06;;;;;;;31.30;13.83;;;;;;;10.33;100.00;99347.08;2170522;82;20998;-59
2023/01/07 09:42:08;;;;;;;34.08;15.93;;;;;;;10.48;100.00;99345.92;2170247;82;21102;-59
2023/01/07 09:45:09;;;;;;;33.45;15.15;;;;;;;10.46;100.00;99347.32;2170460;82;21033;-59
2023/01/07 09:48:11;;;;;;;30.95;13.08;;;;;;;10.46;100.00;99343.83;2170393;82;21175;-60
2023/01/07 09:51:12;;;;;;;31.95;12.73;;;;;;;10.66;100.00;99337.53;2170341;82;21054;-58
2023/01/07 09:54:14;;;;;;;32.42;13.28;;;;;;;10.82;100.00;99331.00;2170219;82;21054;-59
2023/01/07 09:57:16;;;;;;;;;;;;;;;11.00;100.00;99320.81;2172824;82;21509;-59
2023/01/07 10:00:18;;;;;;;26.73;11.20;;;;;;;11.31;100.00;99323.06;2170223;82;20163;-59
2023/01/07 10:03:19;;;;;;;27.15;11.60;;;;;;;11.46;100.00;99312.15;2170810;82;21501;-59
2023/01/07 10:06:22;;;;;;;27.25;12.18;;;;;;;11.66;100.00;99312.80;2169953;82;21054;-59
2023/01/07 10:09:23;;;;;;;28.57;13.15;;;;;;;11.83;100.00;99308.72;2170522;82;20990;-59
2023/01/07 10:12:25;;;;;;;31.77;14.37;;;;;;;11.99;100.00;99307.37;2170493;82;21074;-59
2023/01/07 10:15:27;;;;;;;28.73;11.83;;;;;;;12.01;100.00;99303.34;2170570;82;21090;-58
2023/01/07 10:18:30;;;;;;;24.92;9.78;;;;;;;12.02;100.00;99299.30;2170042;82;21089;-59
2023/01/07 10:21:31;;;;;;;25.82;10.68;;;;;;;12.01;100.00;99305.97;2170297;82;21027;-59
2023/01/07 10:24:33;;;;;;;24.67;9.80;;;;;;;11.91;100.00;99305.63;2170451;82;21026;-59
2023/01/07 10:27:34;;;;;;;23.83;9.90;;;;;;;11.94;100.00;99304.19;2170124;82;21054;-59
2023/01/07 10:30:36;;;;;;;26.77;10.72;;;;;;;11.76;100.00;99297.70;2170389;82;21568;-59
2023/01/07 10:33:38;;;;;;;27.80;11.55;;;;;;;11.67;100.00;99292.17;2170223;82;21118;-59
2023/01/07 10:36:39;;;;;;;26.60;9.83;;;;;;;11.85;100.00;99284.53;2177891;82;21469;-59
2023/01/07 10:39:40;;;;;;;26.95;10.38;;;;;;;12.15;100.00;99287.59;2180129;81;20978;-59
2023/01/07 10:42:42;;;;;;;27.48;10.38;;;;;;;12.24;100.00;99286.19;2180074;82;20990;-59
2023/01/07 10:45:43;;;;;;;29.00;11.03;;;;;;;12.42;100.00;99289.49;2180271;82;21041;-59
2023/01/07 10:48:45;;;;;;;25.75;10.70;;;;;;;12.73;100.00;99287.13;2180253;82;21049;-59
2023/01/07 10:51:46;;;;;;;26.83;11.10;;;;;;;12.70;100.00;99288.64;2180438;82;21496;-59
2023/01/07 10:54:48;;;;;;;27.98;11.35;;;;;;;12.80;100.00;99287.56;2180326;82;21002;-59
2023/01/07 10:57:49;;;;;;;25.52;10.20;;;;;;;12.88;100.00;99285.30;2179991;82;21058;-59
2023/01/07 11:00:51;;;;;;;23.50;9.20;;;;;;;12.78;100.00;99280.25;2180189;82;21015;-59
2023/01/07 11:03:52;;;;;;;26.37;10.28;;;;;;;12.63;100.00;99275.01;2180049;81;21046;-59
2023/01/07 11:06:53;;;;;;;26.75;10.48;;;;;;;12.80;100.00;99273.09;2180384;82;20997;-59
2023/01/07 11:09:55;;;;;;;26.48;9.65;;;;;;;12.88;100.00;99267.36;2180279;82;21014;-59
2023/01/07 11:12:57;;;;;;;26.47;10.13;;;;;;;12.97;100.00;99266.76;2180294;81;21560;-59
2023/01/07 11:15:58;;;;;;;27.10;11.43;;;;;;;12.92;100.00;99258.33;2180280;82;21001;-59
2023/01/07 11:19:00;;;;;;;26.42;10.10;;;;;;;13.05;100.00;99259.22;2179896;82;21557;-59
2023/01/07 11:22:02;;;;;;;26.50;12.10;;;;;;;13.12;100.00;99257.05;2180150;82;21058;-59
2023/01/07 11:25:03;;;;;;;25.77;10.65;;;;;;;13.24;100.00;99255.41;2180558;82;21468;-59
2023/01/07 11:28:05;;;;;;;28.02;11.97;;;;;;;13.34;100.00;99257.34;2180238;82;20954;-59
2023/01/07 11:31:06;;;;;;;24.20;8.83;;;;;;;13.31;100.00;99251.42;2180038;82;20958;-59
2023/01/07 11:34:07;;;;;;;25.17;10.68;;;;;;;13.47;100.00;99249.97;2180133;82;21001;-59
2023/01/07 11:37:09;;;;;;;25.68;9.15;;;;;;;13.48;100.00;99243.27;2171039;82;21117;-59
2023/01/07 11:40:10;;;;;;;23.80;9.50;;;;;;;13.44;100.00;99235.68;2170215;82;21560;-59
2023/01/07 11:43:14;;;;;;;24.55;9.90;;;;;;;13.33;100.00;99227.98;2149447;82;21018;-59
2023/01/07 11:46:15;;;;;;;31.30;12.33;;;;;;;13.54;100.00;99225.38;2170243;82;20991;-59
2023/01/07 11:49:17;;;;;;;26.13;10.90;;;;;;;13.30;100.00;99225.56;2170545;82;21073;-59
2023/01/07 11:52:18;;;;;;;27.42;11.00;;;;;;;13.15;100.00;99226.08;2170475;82;21050;-59
2023/01/07 11:55:20;;;;;;;26.12;10.13;;;;;;;13.10;100.00;99221.59;2170235;82;21532;-59
2023/01/07 11:58:21;;;;;;;25.62;9.60;;;;;;;13.18;100.00;99223.72;2170129;82;21066;-59
2023/01/07 12:01:25;;;;;;;25.80;10.53;;;;;;;13.00;100.00;99216.53;2170077;82;21050;-59
2023/01/07 12:04:27;;;;;;;25.30;10.93;;;;;;;12.70;100.00;99214.95;2170147;82;21632;-59
2023/01/07 12:07:29;;;;;;;26.30;11.65;;;;;;;12.60;100.00;99212.53;2170201;82;21069;-58
2023/01/07 12:10:30;;;;;;;28.17;13.65;;;;;;;12.74;100.00;99208.55;2170262;82;21591;-59
2023/01/07 12:13:33;;;;;;;28.45;12.28;;;;;;;12.97;100.00;99211.47;2170341;82;21042;-59
2023/01/07 12:16:35;;;;;;;29.75;11.43;;;;;;;13.24;100.00;99212.77;2170339;82;21545;-59
2023/01/07 12:19:36;;;;;;;29.30;12.45;;;;;;;13.34;100.00;99210.38;2169809;82;21013;-59
2023/01/07 12:22:38;;;;;;;37.65;19.32;;;;;;;13.25;100.00;99203.10;2170319;82;21073;-59
2023/01/07 12:25:39;;;;;;;33.48;16.62;;;;;;;13.41;100.00;99199.84;2170458;82;21034;-59
2023/01/07 12:28:41;;;;;;;34.35;15.45;;;;;;;13.48;100.00;99191.89;2170119;82;21055;-59
2023/01/07 12:31:43;;;;;;;32.45;14.87;;;;;;;13.26;100.00;99188.96;2170456;82;21042;-59
2023/01/07 12:34:44;;;;;;;28.20;12.63;;;;;;;13.13;100.00;99198.14;2170245;82;21086;-59
2023/01/07 12:37:46;;;;;;;26.95;11.30;;;;;;;13.15;100.00;99197.11;2169832;82;21041;-59
2023/01/07 12:40:47;;;;;;;25.65;10.78;;;;;;;13.00;100.00;99200.28;2170423;82;21081;-59
2023/01/07 12:43:49;;;;;;;26.05;10.80;;;;;;;12.87;100.00;99199.36;2170257;82;21066;-59
2023/01/07 12:46:50;;;;;;;25.80;10.48;;;;;;;12.92;100.00;99193.83;2170636;82;21580;-59
2023/01/07 12:49:52;;;;;;;24.70;10.40;;;;;;;12.95;100.00;99193.14;2169838;82;21029;-59
2023/01/07 12:52:53;;;;;;;23.95;9.48;;;;;;;13.00;100.00;99193.70;2170165;82;21529;-59
2023/01/07 12:55:54;;;;;;;24.52;8.95;;;;;;;13.10;100.00;99195.27;2170255;82;21022;-59
2023/01/07 12:58:56;;;;;;;24.25;9.30;;;;;;;13.16;100.00;99194.02;2170100;82;21098;-59
2023/01/07 13:01:57;;;;;;;27.93;10.18;;;;;;;13.40;100.00;99186.77;2170252;82;21065;-59
2023/01/07 13:04:59;;;;;;;32.42;12.95;;;;;;;13.29;100.00;99184.34;2170058;82;21085;-58
2023/01/07 13:08:00;;;;;;;26.87;10.70;;;;;;;13.17;100.00;99186.02;2170355;82;21517;-59
2023/01/07 13:11:02;;;;;;;27.90;10.40;;;;;;;13.15;100.00;99181.30;2170331;82;21007;-59
2023/01/07 13:14:03;;;;;;;27.42;10.18;;;;;;;12.96;100.00;99180.84;2170331;82;21564;-59
2023/01/07 13:17:04;;;;;;;25.70;10.05;;;;;;;12.80;100.00;99175.25;2170558;82;21090;-59
2023/01/07 13:20:06;;;;;;;49.13;24.98;;;;;;;12.89;100.00;99173.80;2170316;82;21053;-59
2023/01/07 13:23:10;;;;;;;30.25;14.03;;;;;;;12.87;100.00;99175.67;2170554;82;21910;-59
2023/01/07 13:26:11;;;;;;;30.62;13.45;;;;;;;12.89;100.00;99169.85;2149497;82;20985;-59
2023/01/07 13:29:12;;;;;;;30.37;12.90;;;;;;;12.90;100.00;99166.28;2169894;82;21014;-59
2023/01/07 13:32:14;;;;;;;33.10;15.80;;;;;;;12.81;100.00;99170.36;2170206;82;21545;-59
2023/01/07 13:35:15;;;;;;;41.73;20.25;;;;;;;12.83;100.00;99167.14;2170222;82;21066;-59
2023/01/07 13:38:16;;;;;;;35.55;16.93;;;;;;;12.94;100.00;99159.02;2170145;82;21066;-59
2023/01/07 13:41:18;;;;;;;38.75;18.10;;;;;;;12.98;100.00;99167.92;2170326;82;21054;-59
2023/01/07 13:44:20;;;;;;;34.35;15.30;;;;;;;13.11;100.00;99156.11;2170230;82;21058;-59
2023/01/07 13:47:21;;;;;;;35.40;14.68;;;;;;;13.13;100.00;99158.19;2170370;82;21094;-59
2023/01/07 13:50:23;;;;;;;35.83;15.85;;;;;;;12.94;100.00;99155.93;2170492;82;21031;-58
2023/01/07 13:53:24;;;;;;;28.73;11.73;;;;;;;12.92;100.00;99149.07;2170604;82;21038;-59
2023/01/07 13:56:26;;;;;;;26.77;10.28;;;;;;;12.86;100.00;99155.58;2169991;82;21082;-59
2023/01/07 13:59:28;;;;;;;34.13;14.18;;;;;;;12.72;100.00;99144.62;2169911;82;21587;-59